Time;durP1;ratioP1;P1;durP2;ratioP2;P2;SDS_P1;SDS_P2;PMS_P1;PMS_P2;Temp;Humidity;BMP_temperature;BMP_pressure;BME280_temperature;BME280_humidity;BME280_pressure;Samples;Min_cycle;Max_cycle;Signal;HPM_P1;HPM_P2
2023/06/04 00:02:24;;;;;;;19.37;16.90;;;30.10;98.80;;;;;;1856465;77;21224;-85
2023/06/04 00:04:55;;;;;;;20.25;15.53;;;30.10;98.60;;;;;;1931485;74;21820;-87
2023/06/04 00:07:27;;;;;;;25.95;17.48;;;30.10;98.60;;;;;;1933947;74;21125;-85
2023/06/04 00:09:58;;;;;;;23.15;16.77;;;30.20;98.60;;;;;;1929376;74;21148;-85
2023/06/04 00:12:33;;;;;;;23.27;17.50;;;30.20;98.30;;;;;;1875173;76;21257;-84
2023/06/04 00:15:05;;;;;;;20.00;15.15;;;30.30;98.10;;;;;;1839051;76;21509;-85
2023/06/04 00:17:36;;;;;;;22.07;16.30;;;30.30;98.10;;;;;;1872236;76;21134;-85
2023/06/04 00:20:08;;;;;;;26.37;15.68;;;30.30;98.00;;;;;;1880878;74;21143;-86
2023/06/04 00:22:41;;;;;;;22.50;16.15;;;30.30;98.00;;;;;;1875837;74;21136;-86
2023/06/04 00:25:12;;;;;;;22.48;15.90;;;30.40;98.00;;;;;;1885588;74;21177;-85
2023/06/04 00:27:43;;;;;;;21.55;16.37;;;30.50;98.10;;;;;;1868955;76;21122;-86
2023/06/04 00:30:15;;;;;;;25.52;17.37;;;30.50;97.70;;;;;;1913558;74;21636;-86
2023/06/04 00:32:47;;;;;;;23.07;17.87;;;30.60;97.60;;;;;;1931722;73;21181;-85
2023/06/04 00:35:18;;;;;;;20.90;16.73;;;30.50;97.40;;;;;;1916481;74;21098;-86
2023/06/04 00:37:50;;;;;;;20.80;16.12;;;30.60;97.50;;;;;;1875466;75;21114;-86
2023/06/04 00:40:23;;;;;;;21.42;15.68;;;30.60;97.40;;;;;;1927443;74;21653;-86
2023/06/04 00:42:55;;;;;;;20.27;16.15;;;30.70;97.40;;;;;;1926726;73;21193;-85
2023/06/04 00:45:26;;;;;;;22.02;15.70;;;30.80;97.20;;;;;;1913894;74;21113;-85
2023/06/04 00:47:58;;;;;;;18.15;15.48;;;30.90;96.90;;;;;;1932067;74;21067;-86
2023/06/04 00:50:30;;;;;;;20.50;15.03;;;30.90;96.70;;;;;;1925244;73;21104;-85
2023/06/04 00:53:01;;;;;;;20.60;15.63;;;30.90;96.30;;;;;;1931613;73;21141;-85
2023/06/04 00:55:34;;;;;;;20.60;14.95;;;31.00;96.40;;;;;;1870082;76;21174;-85
2023/06/04 00:58:09;;;;;;;17.70;14.43;;;31.00;96.10;;;;;;1870456;75;21796;-85
2023/06/04 01:00:40;;;;;;;17.85;13.75;;;31.10;96.00;;;;;;1869912;75;21177;-86
2023/06/04 01:03:13;;;;;;;25.02;14.73;;;31.10;96.00;;;;;;1883256;74;21112;-85
2023/06/04 01:06:00;;;;;;;17.67;13.75;;;31.20;95.70;;;;;;1876405;74;21197;-86
2023/06/04 01:08:32;;;;;;;16.77;13.93;;;31.30;95.30;;;;;;1875258;75;21140;-86
2023/06/04 01:11:03;;;;;;;20.92;15.18;;;31.40;95.00;;;;;;1872928;75;21113;-85
2023/06/04 01:13:35;;;;;;;20.50;14.73;;;31.50;94.80;;;;;;1932044;74;21138;-87
2023/06/04 01:16:07;;;;;;;20.57;14.47;;;31.50;94.80;;;;;;1861237;75;21158;-87
2023/06/04 01:18:40;;;;;;;18.42;14.55;;;31.50;94.80;;;;;;1885470;74;21251;-87
2023/06/04 01:21:18;;;;;;;15.68;13.85;;;31.60;94.60;;;;;;1876523;75;21149;-87
2023/06/04 01:24:00;;;;;;;16.23;13.22;;;31.70;94.60;;;;;;1926797;74;21154;-87
2023/06/04 01:26:23;;;;;;;17.55;13.80;;;31.80;94.00;;;;;;1917317;73;21215;-87
2023/06/04 01:28:56;;;;;;;20.43;13.85;;;31.80;93.80;;;;;;1867633;75;21123;-86
2023/06/04 01:31:28;;;;;;;19.62;13.20;;;31.80;94.20;;;;;;1847477;77;21189;-85
2023/06/04 01:33:59;;;;;;;84.20;18.10;;;31.70;94.20;;;;;;1929519;73;21126;-85
2023/06/04 01:36:32;;;;;;;28.42;14.68;;;31.70;94.10;;;;;;1924788;74;21117;-87
2023/06/04 01:39:03;;;;;;;23.27;13.03;;;31.60;93.60;;;;;;1847002;76;21529;-85
2023/06/04 01:41:34;;;;;;;19.73;13.75;;;31.60;93.70;;;;;;1874229;76;21123;-86
2023/06/04 01:44:06;;;;;;;19.90;12.90;;;31.60;94.30;;;;;;1931763;74;21188;-86
2023/06/04 01:46:37;;;;;;;16.82;13.40;;;31.70;94.20;;;;;;1876976;76;21190;-87
2023/06/04 01:49:08;;;;;;;18.15;13.20;;;31.60;94.40;;;;;;1863634;77;21568;-86
2023/06/04 01:51:40;;;;;;;16.82;11.55;;;31.80;93.90;;;;;;1881552;74;21285;-86
2023/06/04 01:54:11;;;;;;;18.55;14.07;;;31.80;93.80;;;;;;1871135;74;21218;-86
2023/06/04 01:56:44;;;;;;;19.87;13.32;;;32.00;93.50;;;;;;1928633;74;21145;-87
2023/06/04 01:59:16;;;;;;;16.70;13.08;;;32.10;93.60;;;;;;1917985;74;21141;-86
2023/06/04 02:01:47;;;;;;;18.92;13.32;;;32.20;93.50;;;;;;1928163;74;21119;-86
2023/06/04 02:04:21;;;;;;;17.23;13.05;;;32.40;93.40;;;;;;1929321;73;21192;-86
2023/06/04 02:06:52;;;;;;;18.73;12.78;;;32.50;93.00;;;;;;1928978;73;21119;-86
2023/06/04 02:09:30;;;;;;;19.00;11.93;;;32.60;92.70;;;;;;1921239;73;21143;-86
2023/06/04 02:11:59;;;;;;;;;;;32.70;92.40;;;;;;1877970;76;21131;-86
2023/06/04 02:14:31;;;;;;;20.82;12.20;;;32.70;92.10;;;;;;1915433;74;20128;-87
2023/06/04 02:17:04;;;;;;;24.47;12.47;;;32.70;92.00;;;;;;1913786;74;21057;-87
2023/06/04 02:19:36;;;;;;;15.10;12.07;;;32.80;91.20;;;;;;1909089;73;21131;-87
2023/06/04 02:22:08;;;;;;;17.82;11.80;;;32.80;91.50;;;;;;1869322;75;21189;-83
2023/06/04 02:24:43;;;;;;;16.87;11.90;;;32.90;91.10;;;;;;1835941;77;21183;-84
2023/06/04 02:27:15;;;;;;;16.07;11.93;;;32.80;91.00;;;;;;1834676;77;21153;-84
2023/06/04 02:29:47;;;;;;;15.40;11.93;;;32.90;90.90;;;;;;1843147;77;21163;-83
2023/06/04 02:32:18;;;;;;;19.12;11.83;;;32.90;90.60;;;;;;1822991;78;21244;-83
2023/06/04 02:34:50;;;;;;;16.73;11.48;;;32.90;90.90;;;;;;1827956;76;21162;-85
2023/06/04 02:37:21;;;;;;;16.77;11.60;;;33.00;90.70;;;;;;1851747;76;21216;-84
2023/06/04 02:39:55;;;;;;;25.52;11.93;;;33.10;90.10;;;;;;1861219;76;21549;-85
2023/06/04 02:42:26;;;;;;;22.75;13.43;;;33.20;89.30;;;;;;1839897;77;21149;-84
2023/06/04 02:44:57;;;;;;;18.98;11.88;;;33.30;89.70;;;;;;1843776;76;21123;-84
2023/06/04 02:47:29;;;;;;;16.35;11.55;;;33.30;89.70;;;;;;1897518;74;21136;-87
2023/06/04 02:50:00;;;;;;;16.52;10.75;;;33.40;89.80;;;;;;1861859;75;21117;-85
2023/06/04 02:52:36;;;;;;;19.50;11.33;;;33.40;89.90;;;;;;1836581;77;21149;-86
2023/06/04 02:55:12;;;;;;;19.27;12.82;;;33.50;88.00;;;;;;1836009;77;21157;-88
2023/06/04 02:57:46;;;;;;;15.83;11.50;;;33.60;88.60;;;;;;1906366;74;21131;-86
2023/06/04 03:00:20;;;;;;;17.15;12.03;;;33.60;89.20;;;;;;1902784;73;21232;-87
2023/06/04 03:02:53;;;;;;;18.02;11.68;;;33.60;89.20;;;;;;1909350;74;21116;-89
2023/06/04 03:05:26;;;;;;;23.00;13.60;;;33.60;88.90;;;;;;1871508;76;21161;-86
2023/06/04 03:07:59;;;;;;;19.07;12.00;;;33.70;88.80;;;;;;1901058;74;21084;-87
2023/06/04 03:10:31;;;;;;;16.20;11.73;;;33.80;88.20;;;;;;1913894;74;21119;-89
2023/06/04 03:13:02;;;;;;;15.72;11.75;;;33.80;88.70;;;;;;1869711;75;21230;-86
2023/06/04 03:15:34;;;;;;;17.48;11.53;;;33.80;88.10;;;;;;1831282;76;21155;-86
2023/06/04 03:18:05;;;;;;;22.80;13.10;;;33.80;87.50;;;;;;1881393;75;21091;-87
2023/06/04 03:20:38;;;;;;;15.90;12.18;;;33.90;87.80;;;;;;1847545;77;21115;-87
2023/06/04 03:23:12;;;;;;;19.70;11.25;;;34.00;87.80;;;;;;1851070;76;21220;-85
2023/06/04 03:25:45;;;;;;;15.85;10.82;;;34.10;87.70;;;;;;1850257;77;21233;-86
2023/06/04 03:28:16;;;;;;;18.75;11.05;;;34.10;87.70;;;;;;1855706;77;21158;-87
2023/06/04 03:30:48;;;;;;;14.10;11.93;;;34.10;86.90;;;;;;1908010;74;21146;-85
2023/06/04 03:33:19;;;;;;;14.13;10.80;;;34.10;87.50;;;;;;1924046;74;21172;-86
2023/06/04 03:35:53;;;;;;;19.35;10.58;;;34.30;87.20;;;;;;1863917;75;21241;-89
2023/06/04 03:38:25;;;;;;;19.23;11.68;;;34.30;86.80;;;;;;1926120;74;21179;-87
2023/06/04 03:40:56;;;;;;;17.48;11.95;;;34.40;86.90;;;;;;1919947;74;21074;-86
2023/06/04 03:43:28;;;;;;;17.80;11.33;;;34.40;87.20;;;;;;1881263;76;21070;-87
2023/06/04 03:45:59;;;;;;;17.70;11.78;;;34.50;85.30;;;;;;1861246;76;21118;-87
2023/06/04 03:48:30;;;;;;;14.83;10.63;;;34.60;85.30;;;;;;1853959;76;21136;-87
2023/06/04 03:51:02;;;;;;;13.93;10.68;;;34.70;85.40;;;;;;1869149;75;21237;-87
2023/06/04 03:53:34;;;;;;;17.57;10.32;;;34.80;84.70;;;;;;1913159;73;21638;-87
2023/06/04 03:56:05;;;;;;;18.20;10.58;;;34.80;84.20;;;;;;1927237;74;21160;-87
2023/06/04 03:58:37;;;;;;;12.95;8.20;;;34.80;83.10;;;;;;1905581;74;21123;-86
2023/06/04 04:01:12;;;;;;;16.50;10.45;;;34.90;79.80;;;;;;1916778;74;21135;-85
2023/06/04 04:03:50;;;;;;;14.90;9.88;;;34.90;82.20;;;;;;1926427;74;21215;-87
2023/06/04 04:06:31;;;;;;;19.30;10.15;;;34.90;81.00;;;;;;1921274;73;21204;-87
2023/06/04 04:09:03;;;;;;;15.43;10.00;;;35.00;81.70;;;;;;1840360;76;21151;-85
2023/06/04 04:11:36;;;;;;;19.40;10.32;;;35.10;82.10;;;;;;1834949;76;21136;-85
2023/06/04 04:14:07;;;;;;;13.28;7.92;;;35.20;79.30;;;;;;1869331;74;21317;-84
2023/06/04 04:16:39;;;;;;;14.45;8.40;;;35.30;77.90;;;;;;1831369;76;21332;-85
2023/06/04 04:19:14;;;;;;;12.88;9.78;;;35.30;80.00;;;;;;1835589;72;21143;-85
2023/06/04 04:21:53;;;;;;;38.23;11.38;;;35.40;79.80;;;;;;1839375;77;21083;-84
2023/06/04 04:24:29;;;;;;;21.75;9.93;;;35.40;79.90;;;;;;1854161;76;21222;-85
2023/06/04 04:27:03;;;;;;;15.72;10.78;;;35.50;80.20;;;;;;1856827;77;21044;-86
2023/06/04 04:29:35;;;;;;;11.60;9.50;;;35.70;79.80;;;;;;1861926;76;21165;-85
2023/06/04 04:32:10;;;;;;;14.35;10.45;;;35.70;79.10;;;;;;1863307;76;21110;-84
2023/06/04 04:34:42;;;;;;;15.03;10.15;;;35.70;79.80;;;;;;1865465;76;21825;-84
2023/06/04 04:37:14;;;;;;;17.80;10.95;;;35.70;79.50;;;;;;1840096;77;21120;-85
2023/06/04 04:39:49;;;;;;;14.65;9.65;;;35.60;80.50;;;;;;1871142;76;21149;-84
2023/06/04 04:42:46;;;;;;;22.58;10.53;;;35.60;79.30;;;;;;1882210;73;21154;-85
2023/06/04 04:46:10;;;;;;;18.95;10.38;;;35.50;80.10;;;;;;1783357;76;21608;-83
2023/06/04 04:48:28;;;;;;;16.37;11.05;;;35.50;80.50;;;;;;1857340;76;21176;-84
2023/06/04 04:50:59;;;;;;;16.40;10.35;;;35.60;80.80;;;;;;1861360;75;21159;-83
2023/06/04 04:53:30;;;;;;;20.27;10.78;;;35.80;81.30;;;;;;1853946;75;21136;-85
2023/06/04 04:56:02;;;;;;;17.25;12.07;;;35.80;80.70;;;;;;1865787;76;21149;-84
2023/06/04 04:58:34;;;;;;;15.43;11.45;;;35.70;80.10;;;;;;1865791;75;21256;-84
2023/06/04 05:01:06;;;;;;;16.15;10.50;;;35.70;80.30;;;;;;1865696;76;21114;-83
2023/06/04 05:03:37;;;;;;;16.82;9.95;;;35.70;78.80;;;;;;1856890;76;21828;-83
2023/06/04 05:06:09;;;;;;;15.58;9.80;;;35.70;80.00;;;;;;1859829;76;21446;-84
2023/06/04 05:08:42;;;;;;;16.32;11.53;;;35.80;79.70;;;;;;1832603;77;21224;-83
2023/06/04 05:11:12;;;;;;;17.27;11.15;;;35.90;79.70;;;;;;1926244;74;21109;-82
2023/06/04 05:13:44;;;;;;;15.20;9.63;;;35.90;80.00;;;;;;1912380;74;21175;-82
2023/06/04 05:16:22;;;;;;;13.50;9.68;;;35.90;78.90;;;;;;1920968;73;21176;-83
2023/06/04 05:18:56;;;;;;;12.98;9.20;;;35.80;79.20;;;;;;1920746;73;21132;-82
2023/06/04 05:21:26;;;;;;;19.75;10.72;;;35.70;79.20;;;;;;1918988;74;21050;-83
2023/06/04 05:23:57;;;;;;;15.60;9.98;;;35.70;81.20;;;;;;1915029;74;21717;-83
2023/06/04 05:26:29;;;;;;;18.98;10.75;;;35.80;79.30;;;;;;1918179;73;21139;-82
2023/06/04 05:29:01;;;;;;;12.68;10.00;;;35.90;79.10;;;;;;1910107;74;21098;-83
2023/06/04 05:31:36;;;;;;;13.60;10.20;;;36.00;80.10;;;;;;1924052;73;21102;-83
2023/06/04 05:34:08;;;;;;;21.33;10.60;;;36.10;79.00;;;;;;1923576;73;21226;-83
2023/06/04 05:36:39;;;;;;;15.45;10.68;;;36.10;77.70;;;;;;1928417;74;21059;-83
2023/06/04 05:39:13;;;;;;;17.55;10.10;;;36.20;78.10;;;;;;1912418;73;21244;-83
2023/06/04 05:41:45;;;;;;;12.00;8.95;;;36.20;76.50;;;;;;1875178;75;21142;-81
2023/06/04 05:44:19;;;;;;;12.63;9.00;;;36.10;76.40;;;;;;1855734;76;21123;-82
2023/06/04 05:46:51;;;;;;;14.65;9.85;;;36.10;77.10;;;;;;1924443;74;21149;-82
2023/06/04 05:49:25;;;;;;;14.78;9.15;;;36.20;77.30;;;;;;1910099;74;21138;-82
2023/06/04 05:51:57;;;;;;;13.40;10.07;;;36.20;77.20;;;;;;1915940;73;21182;-81
2023/06/04 05:54:29;;;;;;;18.37;12.10;;;36.30;76.50;;;;;;1917382;74;21119;-81
2023/06/04 05:57:01;;;;;;;19.17;9.78;;;36.40;75.00;;;;;;1922039;74;21178;-81
2023/06/04 05:59:32;;;;;;;13.38;9.25;;;36.40;75.30;;;;;;1903838;74;21574;-83
2023/06/04 06:02:08;;;;;;;15.15;8.88;;;36.50;75.20;;;;;;1926145;74;21144;-83
2023/06/04 06:04:41;;;;;;;;;;;36.50;73.40;;;;;;1926820;73;21208;-84
2023/06/04 06:07:14;;;;;;;;;;;36.50;75.10;;;;;;1916752;74;20120;-83
2023/06/04 06:09:48;;;;;;;16.45;9.43;;;36.60;74.50;;;;;;1916463;73;20124;-84
2023/06/04 06:12:18;;;;;;;11.10;8.73;;;36.60;73.30;;;;;;1927825;74;21061;-83
2023/06/04 06:14:50;;;;;;;13.30;8.08;;;36.70;72.50;;;;;;1927844;73;21106;-83
2023/06/04 06:17:21;;;;;;;11.85;8.58;;;36.70;71.30;;;;;;1923016;73;21230;-83
2023/06/04 06:19:54;;;;;;;12.70;8.53;;;36.70;71.80;;;;;;1918823;74;21218;-83
2023/06/04 06:22:27;;;;;;;11.15;8.50;;;36.70;71.60;;;;;;1921174;74;21172;-84
2023/06/04 06:24:58;;;;;;;14.83;9.40;;;36.70;71.30;;;;;;1928130;73;21177;-83
2023/06/04 06:27:31;;;;;;;13.32;8.18;;;36.70;71.30;;;;;;1927594;73;21210;-84
2023/06/04 06:30:07;;;;;;;14.93;8.88;;;36.60;71.90;;;;;;1929131;74;21177;-83
2023/06/04 06:32:38;;;;;;;11.55;8.55;;;36.60;72.10;;;;;;1901234;74;21128;-84
2023/06/04 06:35:22;;;;;;;13.35;8.10;;;36.60;71.90;;;;;;1908811;74;21136;-87
2023/06/04 06:37:54;;;;;;;;;;;36.60;72.00;;;;;;1931895;73;21202;-85
2023/06/04 06:40:35;;;;;;;14.95;8.60;;;36.70;71.30;;;;;;1918718;73;20218;-83
2023/06/04 06:43:10;;;;;;;15.00;9.28;;;36.60;71.30;;;;;;1911043;74;21157;-84
2023/06/04 06:45:42;;;;;;;21.65;9.23;;;36.70;71.20;;;;;;1905240;74;21697;-84
2023/06/04 06:48:13;;;;;;;13.58;9.00;;;36.60;71.70;;;;;;1931331;73;21197;-83
2023/06/04 06:50:45;;;;;;;18.25;8.48;;;36.70;71.80;;;;;;1917911;73;21266;-82
2023/06/04 06:53:16;;;;;;;12.95;9.43;;;36.60;70.40;;;;;;1875342;74;21087;-83
2023/06/04 06:55:48;;;;;;;13.08;9.50;;;36.60;71.10;;;;;;1920988;74;21114;-82
2023/06/04 06:58:19;;;;;;;12.82;9.18;;;36.60;71.70;;;;;;1917273;73;21270;-82
2023/06/04 07:00:50;;;;;;;12.28;8.93;;;36.50;72.00;;;;;;1917852;74;21078;-83
2023/06/04 07:03:22;;;;;;;13.75;9.63;;;36.40;72.60;;;;;;1925781;73;21127;-83
2023/06/04 07:05:53;;;;;;;16.00;9.30;;;36.40;72.60;;;;;;1930240;73;21163;-82
2023/06/04 07:08:24;;;;;;;14.23;9.38;;;36.40;72.80;;;;;;1850707;76;21264;-83
2023/06/04 07:11:04;;;;;;;12.50;9.45;;;36.40;73.80;;;;;;1851518;76;21150;-82
2023/06/04 07:13:36;;;;;;;13.88;8.70;;;36.50;73.70;;;;;;1853291;76;21272;-80
2023/06/04 07:16:07;;;;;;;17.48;9.08;;;36.60;73.40;;;;;;1850429;76;21213;-81
2023/06/04 07:18:38;;;;;;;15.20;9.48;;;36.70;72.50;;;;;;1903817;75;21105;-83
2023/06/04 07:21:10;;;;;;;14.50;9.30;;;36.80;72.40;;;;;;1906169;74;21176;-83
2023/06/04 07:23:41;;;;;;;16.90;9.68;;;36.80;71.90;;;;;;1911708;75;21117;-84
2023/06/04 07:26:13;;;;;;;14.73;9.20;;;36.80;71.70;;;;;;1913144;74;21193;-83
2023/06/04 07:28:45;;;;;;;19.57;10.00;;;36.60;72.30;;;;;;1914090;74;21571;-85
2023/06/04 07:31:19;;;;;;;18.40;10.23;;;36.60;73.10;;;;;;1910204;75;21686;-82
2023/06/04 07:33:51;;;;;;;18.35;10.15;;;36.70;73.00;;;;;;1908703;75;21159;-85
2023/06/04 07:36:22;;;;;;;13.00;9.15;;;36.70;72.60;;;;;;1899836;75;21187;-82
2023/06/04 07:38:55;;;;;;;16.60;9.50;;;36.70;71.40;;;;;;1814010;77;21130;-83
2023/06/04 07:41:29;;;;;;;12.95;9.40;;;36.70;72.90;;;;;;1906743;75;21190;-83
2023/06/04 07:44:02;;;;;;;15.68;8.63;;;36.70;72.10;;;;;;1834514;76;21186;-85
2023/06/04 07:46:34;;;;;;;15.95;9.25;;;36.70;71.00;;;;;;1899685;75;21117;-85
2023/06/04 07:49:05;;;;;;;10.58;8.03;;;36.60;71.40;;;;;;1917485;74;21200;-83
2023/06/04 07:51:37;;;;;;;10.82;8.98;;;36.60;71.70;;;;;;1909643;73;21145;-83
2023/06/04 07:54:08;;;;;;;16.35;9.18;;;36.50;70.40;;;;;;1900914;75;21160;-85
2023/06/04 07:56:39;;;;;;;17.12;9.65;;;36.50;70.70;;;;;;1909191;74;21112;-85
2023/06/04 07:59:11;;;;;;;18.57;10.00;;;36.60;71.50;;;;;;1890962;75;21113;-85
2023/06/04 08:01:42;;;;;;;13.28;8.45;;;36.60;70.90;;;;;;1915262;75;21117;-85
2023/06/04 08:04:19;;;;;;;15.60;8.55;;;36.60;71.30;;;;;;1906476;74;21203;-85
2023/06/04 08:06:51;;;;;;;12.90;8.35;;;36.70;71.30;;;;;;1911304;74;21112;-87
2023/06/04 08:09:22;;;;;;;13.90;8.40;;;36.80;70.40;;;;;;1815417;77;21171;-85
2023/06/04 08:11:53;;;;;;;17.15;8.43;;;36.80;69.50;;;;;;1823462;78;21198;-85
2023/06/04 08:14:28;;;;;;;10.75;8.50;;;36.80;71.00;;;;;;1916837;74;21154;-86
2023/06/04 08:16:59;;;;;;;11.57;8.18;;;36.80;70.20;;;;;;1907475;74;21208;-85
2023/06/04 08:19:30;;;;;;;13.85;7.50;;;36.70;71.10;;;;;;1911379;74;21077;-85
2023/06/04 08:22:02;;;;;;;15.18;8.23;;;36.70;70.00;;;;;;1923263;73;21195;-84
2023/06/04 08:24:33;;;;;;;18.57;9.60;;;36.60;69.40;;;;;;1916346;74;21190;-88
2023/06/04 08:27:07;;;;;;;13.32;8.48;;;36.60;68.90;;;;;;1921697;74;21768;-83
2023/06/04 08:29:39;;;;;;;12.00;7.95;;;36.70;68.60;;;;;;1915577;73;21145;-86
2023/06/04 08:32:13;;;;;;;17.87;8.23;;;36.70;68.80;;;;;;1843850;76;21092;-86
2023/06/04 08:34:44;;;;;;;19.02;8.80;;;36.60;68.30;;;;;;1925801;74;21653;-83
2023/06/04 08:37:15;;;;;;;14.73;7.87;;;36.50;68.80;;;;;;1866368;75;21159;-85
2023/06/04 08:39:47;;;;;;;14.85;8.23;;;36.50;69.50;;;;;;1929170;73;21239;-85
2023/06/04 08:42:25;;;;;;;22.25;8.88;;;36.40;70.40;;;;;;1923808;73;21100;-86
2023/06/04 08:44:53;;;;;;;20.50;9.08;;;36.30;70.80;;;;;;1914385;74;21191;-85
2023/06/04 08:47:26;;;;;;;27.22;8.93;;;36.30;71.30;;;;;;1922146;73;21593;-77
2023/06/04 08:50:02;;;;;;;11.85;7.50;;;36.30;71.50;;;;;;1896264;74;21079;-78
2023/06/04 08:52:35;;;;;;;11.48;7.55;;;36.40;70.50;;;;;;1901767;73;21124;-78
2023/06/04 08:55:11;;;;;;;15.95;7.97;;;36.40;70.40;;;;;;1844389;76;21297;-77
2023/06/04 08:57:43;;;;;;;34.05;8.63;;;36.40;71.50;;;;;;1852088;76;21399;-78
2023/06/04 09:00:16;;;;;;;12.37;7.17;;;36.40;70.60;;;;;;1929466;74;21082;-77
2023/06/04 09:02:48;;;;;;;19.15;8.45;;;36.40;69.00;;;;;;1924102;73;21147;-77
2023/06/04 09:05:23;;;;;;;14.30;7.90;;;36.40;69.10;;;;;;1926218;74;21074;-79
2023/06/04 09:07:56;;;;;;;16.60;7.75;;;36.30;69.50;;;;;;1916416;73;21126;-77
2023/06/04 09:10:29;;;;;;;19.92;8.73;;;36.30;70.10;;;;;;1912759;74;21108;-78
2023/06/04 09:13:03;;;;;;;18.25;8.03;;;36.30;70.00;;;;;;1923072;74;21078;-78
2023/06/04 09:15:34;;;;;;;13.50;7.33;;;36.30;69.50;;;;;;1917376;73;21061;-78
2023/06/04 09:18:06;;;;;;;13.93;7.90;;;36.30;69.50;;;;;;1859301;75;21804;-79
2023/06/04 09:20:37;;;;;;;14.87;7.70;;;36.10;69.90;;;;;;1837769;77;21203;-79
2023/06/04 09:23:16;;;;;;;14.93;7.17;;;36.00;70.30;;;;;;1810844;78;21099;-76
2023/06/04 09:25:47;;;;;;;11.08;7.00;;;36.00;70.60;;;;;;1816848;78;21178;-75
2023/06/04 09:28:18;;;;;;;14.10;7.85;;;35.90;70.80;;;;;;1910691;75;21131;-75
2023/06/04 09:30:56;;;;;;;15.68;6.97;;;35.90;71.00;;;;;;1912276;74;21160;-76
2023/06/04 09:33:28;;;;;;;13.20;7.33;;;35.90;71.20;;;;;;1913878;75;21156;-77
2023/06/04 09:36:00;;;;;;;10.38;6.87;;;35.80;71.90;;;;;;1913975;75;21121;-76
2023/06/04 09:38:37;;;;;;;12.03;7.08;;;35.80;71.20;;;;;;1913932;75;21201;-76
2023/06/04 09:41:16;;;;;;;11.63;7.33;;;35.80;70.90;;;;;;1914009;74;21137;-76
2023/06/04 09:43:47;;;;;;;12.85;6.97;;;35.80;71.10;;;;;;1916424;74;21592;-76
2023/06/04 09:46:18;;;;;;;17.70;6.78;;;35.80;71.90;;;;;;1917252;75;21085;-77
2023/06/04 09:48:51;;;;;;;10.80;6.78;;;35.80;71.00;;;;;;1904744;75;21116;-76
2023/06/04 09:51:23;;;;;;;13.53;7.75;;;35.80;70.50;;;;;;1907322;75;21260;-77
2023/06/04 09:53:59;;;;;;;13.55;7.37;;;35.80;70.90;;;;;;1912196;75;21129;-78
2023/06/04 09:56:31;;;;;;;19.67;8.00;;;35.80;72.50;;;;;;1905536;73;21131;-80
2023/06/04 09:59:03;;;;;;;15.85;7.33;;;35.70;71.70;;;;;;1910000;74;21558;-77
2023/06/04 10:01:34;;;;;;;23.10;7.90;;;35.70;71.60;;;;;;1901259;75;21127;-81
2023/06/04 10:04:07;;;;;;;19.25;8.33;;;35.60;75.30;;;;;;1900644;75;21180;-80
2023/06/04 10:06:39;;;;;;;18.15;8.30;;;35.60;79.90;;;;;;1918554;75;21121;-83
2023/06/04 10:09:12;;;;;;;17.45;8.05;;;35.30;83.20;;;;;;1917565;75;21146;-80
2023/06/04 10:11:45;;;;;;;15.70;7.42;;;34.90;85.10;;;;;;1916605;73;21145;-79
2023/06/04 10:14:19;;;;;;;14.73;7.20;;;34.50;86.10;;;;;;1823458;77;21246;-83
2023/06/04 10:16:52;;;;;;;12.35;6.97;;;34.10;87.10;;;;;;1829009;78;21111;-81
2023/06/04 10:19:24;;;;;;;12.95;6.92;;;33.80;88.10;;;;;;1909343;74;21164;-83
2023/06/04 10:21:56;;;;;;;8.70;5.45;;;33.50;89.10;;;;;;1897528;75;21125;-86
2023/06/04 10:24:27;;;;;;;9.15;5.35;;;33.20;90.00;;;;;;1819788;77;21539;-81
2023/06/04 10:27:00;;;;;;;8.90;5.40;;;32.90;90.20;;;;;;1851736;77;21530;-80
2023/06/04 10:29:32;;;;;;;7.40;4.33;;;32.60;90.90;;;;;;1849185;77;21218;-83
2023/06/04 10:32:04;;;;;;;7.87;3.92;;;32.40;90.90;;;;;;1843630;77;21659;-78
2023/06/04 10:34:37;;;;;;;7.10;3.20;;;32.10;91.00;;;;;;1851310;77;21178;-79
2023/06/04 10:37:09;;;;;;;6.85;3.62;;;31.90;91.50;;;;;;1852743;77;21076;-80
2023/06/04 10:39:42;;;;;;;5.80;2.77;;;31.80;91.70;;;;;;1866135;74;21103;-82
2023/06/04 10:42:16;;;;;;;9.40;3.27;;;31.70;91.00;;;;;;1865766;76;21212;-81
2023/06/04 10:45:01;;;;;;;5.42;3.12;;;31.60;91.30;;;;;;1861694;77;21594;-78
2023/06/04 10:47:40;;;;;;;7.78;2.37;;;31.60;91.00;;;;;;1853370;76;21071;-82
2023/06/04 10:50:15;;;;;;;7.92;2.90;;;31.50;90.80;;;;;;1859682;76;21185;-89
2023/06/04 10:53:03;;;;;;;4.60;2.35;;;31.30;90.70;;;;;;1866995;77;21056;-89
2023/06/04 10:55:35;;;;;;;5.75;2.58;;;31.20;90.40;;;;;;1864788;77;21150;-87
2023/06/04 10:58:07;;;;;;;4.33;2.33;;;30.90;90.60;;;;;;1862318;76;21209;-88
2023/06/04 11:00:45;;;;;;;5.40;2.80;;;30.70;91.10;;;;;;1865376;76;21193;-89
2023/06/04 11:03:16;;;;;;;5.17;3.00;;;30.60;91.80;;;;;;1867232;77;21500;-87
2023/06/04 11:05:51;;;;;;;6.90;3.40;;;30.50;91.90;;;;;;1857671;75;21615;-87
2023/06/04 11:08:30;;;;;;;7.95;3.35;;;30.40;92.40;;;;;;1870828;75;21095;-87
2023/06/04 11:11:06;;;;;;;6.53;4.05;;;30.40;92.60;;;;;;1856764;75;21163;-86
2023/06/04 11:13:37;;;;;;;6.67;3.92;;;30.40;92.70;;;;;;1846970;76;21068;-87
2023/06/04 11:16:19;;;;;;;8.95;4.62;;;30.40;93.40;;;;;;1864058;76;21140;-89
2023/06/04 11:19:02;;;;;;;6.30;4.28;;;30.40;93.20;;;;;;1861270;76;21188;-89
2023/06/04 11:21:39;;;;;;;7.20;4.03;;;30.40;93.30;;;;;;1856570;77;21228;-87
2023/06/04 11:24:17;;;;;;;6.87;4.42;;;30.40;93.20;;;;;;1861361;77;21096;-88
2023/06/04 11:26:49;;;;;;;9.58;5.40;;;30.40;93.50;;;;;;1846400;76;21126;-87
2023/06/04 11:29:23;;;;;;;6.55;4.65;;;30.50;93.60;;;;;;1917583;74;21161;-85
2023/06/04 11:31:57;;;;;;;10.50;5.12;;;30.50;93.30;;;;;;1920097;75;21195;-86
2023/06/04 11:34:31;;;;;;;9.45;5.60;;;30.40;93.50;;;;;;1922543;75;21081;-89
2023/06/04 11:37:12;;;;;;;8.58;5.10;;;30.50;93.40;;;;;;1919885;74;21122;-87
2023/06/04 11:39:44;;;;;;;9.28;5.25;;;30.50;93.30;;;;;;1911604;73;21090;-84
2023/06/04 11:42:17;;;;;;;7.28;4.80;;;30.60;93.30;;;;;;1856073;75;21040;-91
2023/06/04 11:45:03;;;;;;;;;;;;;;;;;;;;;
2023/06/04 11:47:36;;;;;;;;;;;30.70;93.00;;;;;;1847512;77;21158;-81
2023/06/04 11:50:16;;;;;;;7.40;5.78;;;30.80;92.90;;;;;;1840278;76;20199;-83
2023/06/04 11:52:48;;;;;;;11.90;5.55;;;30.90;92.80;;;;;;1843870;77;21538;-83
2023/06/04 11:55:23;;;;;;;8.88;5.87;;;30.90;92.40;;;;;;1836156;77;21162;-82
2023/06/04 11:57:54;;;;;;;11.12;5.65;;;31.00;92.30;;;;;;1847180;77;21131;-82
2023/06/04 12:00:28;;;;;;;8.48;5.53;;;31.10;92.40;;;;;;1851824;77;21145;-80
2023/06/04 12:03:00;;;;;;;8.65;5.47;;;31.20;92.50;;;;;;1849884;77;21139;-82
2023/06/04 12:05:35;;;;;;;9.13;5.15;;;31.20;92.70;;;;;;1847967;77;21142;-82
2023/06/04 12:11:11;;;;;;;10.55;5.45;;;31.30;92.70;;;;;;1794715;77;21147;-81
2023/06/04 12:13:45;;;;;;;14.75;5.70;;;31.30;93.40;;;;;;1847871;76;21201;-80
2023/06/04 12:16:16;;;;;;;8.90;5.50;;;31.30;93.80;;;;;;1853606;76;21061;-80
2023/06/04 12:18:50;;;;;;;11.68;5.87;;;31.30;93.60;;;;;;1850127;76;21139;-79
2023/06/04 12:21:31;;;;;;;7.62;5.28;;;31.30;92.70;;;;;;1814117;77;21096;-80
2023/06/04 12:24:15;;;;;;;11.48;5.78;;;31.30;93.00;;;;;;1876046;75;21168;-80
2023/06/04 12:26:49;;;;;;;11.90;5.97;;;31.20;93.40;;;;;;1876961;75;21192;-81
2023/06/04 12:29:21;;;;;;;8.80;5.45;;;31.20;93.70;;;;;;1875739;75;21178;-80
2023/06/04 12:31:56;;;;;;;10.38;5.60;;;31.10;93.70;;;;;;1875720;75;21159;-81
2023/06/04 12:34:34;;;;;;;7.10;5.45;;;31.10;93.70;;;;;;1876948;75;21120;-83
2023/06/04 12:37:12;;;;;;;9.55;5.17;;;31.10;93.70;;;;;;1874875;75;21203;-81
2023/06/04 12:39:42;;;;;;;11.28;5.50;;;31.00;93.80;;;;;;1867705;76;21173;-78
2023/06/04 12:42:15;;;;;;;21.17;6.47;;;31.00;93.60;;;;;;1876767;75;21190;-81
2023/06/04 12:44:47;;;;;;;7.37;5.33;;;30.90;94.20;;;;;;1872564;76;21169;-81
2023/06/04 12:47:21;;;;;;;7.87;5.10;;;30.90;94.90;;;;;;1868320;75;21196;-80
2023/06/04 12:49:52;;;;;;;12.53;6.37;;;30.90;95.20;;;;;;1876952;75;21209;-87
2023/06/04 12:52:24;;;;;;;12.70;6.65;;;30.80;94.80;;;;;;1807044;78;21713;-86
2023/06/04 12:54:55;;;;;;;14.93;7.10;;;30.60;95.90;;;;;;1809304;78;21201;-85
2023/06/04 12:57:27;;;;;;;11.53;6.67;;;30.30;96.60;;;;;;1866610;75;21064;-87
2023/06/04 13:00:19;;;;;;;9.43;6.83;;;30.10;97.30;;;;;;1878501;75;21726;-87
2023/06/04 13:03:08;;;;;;;12.53;6.45;;;29.90;97.40;;;;;;1864122;75;21072;-86
2023/06/04 13:05:43;;;;;;;10.98;5.95;;;29.90;97.10;;;;;;1878236;75;21100;-86
2023/06/04 13:08:14;;;;;;;13.03;6.05;;;29.90;97.30;;;;;;1834940;77;21240;-87
2023/06/04 13:11:37;;;;;;;15.35;7.03;;;29.90;97.30;;;;;;1839356;76;21180;-88